sensor_id;sensor_type;location;lat;lon;timestamp;P1;durP1;ratioP1;P2;durP2;ratioP2
81242;SDS011;70716;50.074;14.496;2023-07-20T00:01:33;4.95;;;2.10;;
81242;SDS011;70716;50.074;14.496;2023-07-20T00:03:58;7.05;;;2.70;;
81242;SDS011;70716;50.074;14.496;2023-07-20T00:06:25;4.22;;;2.30;;
81242;SDS011;70716;50.074;14.496;2023-07-20T00:08:52;5.57;;;2.13;;
81242;SDS011;70716;50.074;14.496;2023-07-20T00:11:21;4.55;;;2.08;;
81242;SDS011;70716;50.074;14.496;2023-07-20T00:13:50;6.68;;;2.30;;
81242;SDS011;70716;50.074;14.496;2023-07-20T00:16:16;4.72;;;1.98;;
81242;SDS011;70716;50.074;14.496;2023-07-20T00:18:41;5.80;;;2.38;;
81242;SDS011;70716;50.074;14.496;2023-07-20T00:21:07;5.03;;;2.08;;
81242;SDS011;70716;50.074;14.496;2023-07-20T00:23:32;4.85;;;1.88;;
81242;SDS011;70716;50.074;14.496;2023-07-20T00:25:59;4.45;;;2.03;;
81242;SDS011;70716;50.074;14.496;2023-07-20T00:28:24;6.40;;;2.30;;
81242;SDS011;70716;50.074;14.496;2023-07-20T00:30:49;4.70;;;2.08;;
81242;SDS011;70716;50.074;14.496;2023-07-20T00:33:16;4.93;;;1.92;;
81242;SDS011;70716;50.074;14.496;2023-07-20T00:35:43;3.65;;;1.92;;
81242;SDS011;70716;50.074;14.496;2023-07-20T00:38:08;4.47;;;2.20;;
81242;SDS011;70716;50.074;14.496;2023-07-20T00:40:40;4.90;;;1.98;;
81242;SDS011;70716;50.074;14.496;2023-07-20T00:43:09;5.80;;;2.30;;
81242;SDS011;70716;50.074;14.496;2023-07-20T00:45:34;6.40;;;2.17;;
81242;SDS011;70716;50.074;14.496;2023-07-20T00:48:04;5.32;;;2.28;;
81242;SDS011;70716;50.074;14.496;2023-07-20T00:50:33;6.00;;;2.33;;
81242;SDS011;70716;50.074;14.496;2023-07-20T00:52:59;5.28;;;1.88;;
81242;SDS011;70716;50.074;14.496;2023-07-20T00:55:28;5.18;;;2.15;;
81242;SDS011;70716;50.074;14.496;2023-07-20T00:57:54;4.60;;;2.30;;
81242;SDS011;70716;50.074;14.496;2023-07-20T01:00:19;4.53;;;2.00;;
81242;SDS011;70716;50.074;14.496;2023-07-20T01:02:45;4.72;;;2.05;;
81242;SDS011;70716;50.074;14.496;2023-07-20T01:05:14;6.90;;;2.45;;
81242;SDS011;70716;50.074;14.496;2023-07-20T01:07:51;5.70;;;2.17;;
81242;SDS011;70716;50.074;14.496;2023-07-20T01:10:38;5.65;;;1.98;;
81242;SDS011;70716;50.074;14.496;2023-07-20T01:13:08;6.72;;;2.58;;
81242;SDS011;70716;50.074;14.496;2023-07-20T01:15:38;5.47;;;2.13;;
81242;SDS011;70716;50.074;14.496;2023-07-20T01:18:04;5.53;;;2.13;;
81242;SDS011;70716;50.074;14.496;2023-07-20T01:20:30;6.68;;;2.20;;
81242;SDS011;70716;50.074;14.496;2023-07-20T01:23:22;4.70;;;2.05;;
81242;SDS011;70716;50.074;14.496;2023-07-20T01:31:33;5.00;;;2.30;;
81242;SDS011;70716;50.074;14.496;2023-07-20T01:34:01;7.28;;;2.30;;
81242;SDS011;70716;50.074;14.496;2023-07-20T01:36:30;6.30;;;2.25;;
81242;SDS011;70716;50.074;14.496;2023-07-20T01:38:59;4.70;;;2.25;;
81242;SDS011;70716;50.074;14.496;2023-07-20T01:41:25;6.38;;;2.35;;
81242;SDS011;70716;50.074;14.496;2023-07-20T01:43:50;5.57;;;2.50;;
81242;SDS011;70716;50.074;14.496;2023-07-20T01:46:16;5.80;;;2.25;;
81242;SDS011;70716;50.074;14.496;2023-07-20T01:48:41;4.90;;;2.25;;
81242;SDS011;70716;50.074;14.496;2023-07-20T01:51:07;5.07;;;2.70;;
81242;SDS011;70716;50.074;14.496;2023-07-20T01:53:33;8.80;;;2.42;;
81242;SDS011;70716;50.074;14.496;2023-07-20T01:55:59;4.93;;;2.40;;
81242;SDS011;70716;50.074;14.496;2023-07-20T01:58:26;5.57;;;2.42;;
81242;SDS011;70716;50.074;14.496;2023-07-20T02:00:51;6.18;;;2.35;;
81242;SDS011;70716;50.074;14.496;2023-07-20T02:03:16;5.68;;;2.60;;
81242;SDS011;70716;50.074;14.496;2023-07-20T02:05:42;6.32;;;2.40;;
81242;SDS011;70716;50.074;14.496;2023-07-20T02:08:08;4.60;;;2.15;;
81242;SDS011;70716;50.074;14.496;2023-07-20T02:10:34;6.38;;;2.58;;
81242;SDS011;70716;50.074;14.496;2023-07-20T02:13:00;6.38;;;2.10;;
81242;SDS011;70716;50.074;14.496;2023-07-20T02:15:28;5.93;;;2.35;;
81242;SDS011;70716;50.074;14.496;2023-07-20T02:17:54;4.82;;;1.75;;
81242;SDS011;70716;50.074;14.496;2023-07-20T02:20:22;7.28;;;2.40;;
81242;SDS011;70716;50.074;14.496;2023-07-20T02:22:48;4.28;;;2.15;;
81242;SDS011;70716;50.074;14.496;2023-07-20T02:25:13;5.80;;;2.10;;
81242;SDS011;70716;50.074;14.496;2023-07-20T02:27:39;5.05;;;2.10;;
81242;SDS011;70716;50.074;14.496;2023-07-20T02:30:04;7.30;;;2.70;;
81242;SDS011;70716;50.074;14.496;2023-07-20T02:32:31;7.30;;;2.40;;
81242;SDS011;70716;50.074;14.496;2023-07-20T02:34:59;7.13;;;2.30;;
81242;SDS011;70716;50.074;14.496;2023-07-20T02:37:25;4.93;;;2.13;;
81242;SDS011;70716;50.074;14.496;2023-07-20T02:39:50;5.38;;;2.15;;
81242;SDS011;70716;50.074;14.496;2023-07-20T02:42:16;7.18;;;2.90;;
81242;SDS011;70716;50.074;14.496;2023-07-20T02:44:41;6.07;;;2.50;;
81242;SDS011;70716;50.074;14.496;2023-07-20T02:47:07;5.18;;;2.20;;
81242;SDS011;70716;50.074;14.496;2023-07-20T02:49:32;6.63;;;2.75;;
81242;SDS011;70716;50.074;14.496;2023-07-20T02:51:57;5.78;;;2.40;;
81242;SDS011;70716;50.074;14.496;2023-07-20T02:54:23;6.15;;;2.10;;
81242;SDS011;70716;50.074;14.496;2023-07-20T02:56:48;5.03;;;2.40;;
81242;SDS011;70716;50.074;14.496;2023-07-20T02:59:14;5.72;;;2.13;;
81242;SDS011;70716;50.074;14.496;2023-07-20T03:01:39;4.97;;;2.33;;
81242;SDS011;70716;50.074;14.496;2023-07-20T03:04:07;6.05;;;2.40;;
81242;SDS011;70716;50.074;14.496;2023-07-20T03:06:38;5.72;;;2.50;;
81242;SDS011;70716;50.074;14.496;2023-07-20T03:09:04;5.60;;;2.35;;
81242;SDS011;70716;50.074;14.496;2023-07-20T03:11:29;4.70;;;2.28;;
81242;SDS011;70716;50.074;14.496;2023-07-20T03:13:55;5.55;;;2.22;;
81242;SDS011;70716;50.074;14.496;2023-07-20T03:16:21;7.13;;;2.30;;
81242;SDS011;70716;50.074;14.496;2023-07-20T03:18:51;5.07;;;2.53;;
81242;SDS011;70716;50.074;14.496;2023-07-20T03:21:17;8.70;;;3.30;;
81242;SDS011;70716;50.074;14.496;2023-07-20T03:23:43;6.10;;;2.65;;
81242;SDS011;70716;50.074;14.496;2023-07-20T03:26:10;6.05;;;2.83;;
81242;SDS011;70716;50.074;14.496;2023-07-20T03:28:38;6.95;;;3.17;;
81242;SDS011;70716;50.074;14.496;2023-07-20T03:31:04;8.50;;;3.20;;
81242;SDS011;70716;50.074;14.496;2023-07-20T03:33:30;8.85;;;3.35;;
81242;SDS011;70716;50.074;14.496;2023-07-20T03:35:57;8.73;;;4.10;;
81242;SDS011;70716;50.074;14.496;2023-07-20T03:38:23;6.15;;;2.75;;
81242;SDS011;70716;50.074;14.496;2023-07-20T03:40:50;6.35;;;2.90;;
81242;SDS011;70716;50.074;14.496;2023-07-20T03:43:16;6.32;;;2.67;;
81242;SDS011;70716;50.074;14.496;2023-07-20T03:45:41;6.20;;;3.00;;
81242;SDS011;70716;50.074;14.496;2023-07-20T03:48:07;8.23;;;3.38;;
81242;SDS011;70716;50.074;14.496;2023-07-20T03:50:32;8.32;;;2.90;;
81242;SDS011;70716;50.074;14.496;2023-07-20T03:52:58;7.57;;;2.80;;
81242;SDS011;70716;50.074;14.496;2023-07-20T03:55:23;6.18;;;2.63;;
81242;SDS011;70716;50.074;14.496;2023-07-20T03:57:48;5.88;;;2.55;;
81242;SDS011;70716;50.074;14.496;2023-07-20T04:05:06;6.30;;;2.38;;
81242;SDS011;70716;50.074;14.496;2023-07-20T04:07:32;5.70;;;2.38;;
81242;SDS011;70716;50.074;14.496;2023-07-20T04:09:57;7.72;;;2.92;;
81242;SDS011;70716;50.074;14.496;2023-07-20T04:12:23;7.28;;;3.25;;
81242;SDS011;70716;50.074;14.496;2023-07-20T04:14:50;7.85;;;3.63;;
81242;SDS011;70716;50.074;14.496;2023-07-20T04:17:16;8.15;;;3.65;;
81242;SDS011;70716;50.074;14.496;2023-07-20T04:19:42;9.00;;;3.40;;
81242;SDS011;70716;50.074;14.496;2023-07-20T04:22:08;8.13;;;3.60;;
81242;SDS011;70716;50.074;14.496;2023-07-20T04:24:33;5.90;;;3.13;;
81242;SDS011;70716;50.074;14.496;2023-07-20T04:26:58;7.15;;;3.53;;
81242;SDS011;70716;50.074;14.496;2023-07-20T04:29:24;7.97;;;3.65;;
81242;SDS011;70716;50.074;14.496;2023-07-20T04:31:49;6.95;;;3.60;;
81242;SDS011;70716;50.074;14.496;2023-07-20T04:34:18;7.28;;;3.35;;
81242;SDS011;70716;50.074;14.496;2023-07-20T04:36:43;7.53;;;3.22;;
81242;SDS011;70716;50.074;14.496;2023-07-20T04:39:09;8.27;;;3.50;;
81242;SDS011;70716;50.074;14.496;2023-07-20T04:41:35;6.97;;;3.30;;
81242;SDS011;70716;50.074;14.496;2023-07-20T04:44:00;6.25;;;3.20;;
81242;SDS011;70716;50.074;14.496;2023-07-20T04:46:26;9.30;;;3.42;;
81242;SDS011;70716;50.074;14.496;2023-07-20T04:48:51;8.15;;;3.10;;
81242;SDS011;70716;50.074;14.496;2023-07-20T04:51:17;7.68;;;3.55;;
81242;SDS011;70716;50.074;14.496;2023-07-20T04:53:45;6.75;;;3.00;;
81242;SDS011;70716;50.074;14.496;2023-07-20T04:56:17;6.78;;;2.90;;
81242;SDS011;70716;50.074;14.496;2023-07-20T04:58:42;7.80;;;2.90;;
81242;SDS011;70716;50.074;14.496;2023-07-20T05:01:08;5.57;;;2.75;;
81242;SDS011;70716;50.074;14.496;2023-07-20T05:03:33;6.00;;;3.15;;
81242;SDS011;70716;50.074;14.496;2023-07-20T05:05:59;8.45;;;2.80;;
81242;SDS011;70716;50.074;14.496;2023-07-20T05:08:24;6.53;;;3.00;;
81242;SDS011;70716;50.074;14.496;2023-07-20T05:10:50;6.47;;;3.13;;
81242;SDS011;70716;50.074;14.496;2023-07-20T05:13:16;5.50;;;3.28;;
81242;SDS011;70716;50.074;14.496;2023-07-20T05:15:41;5.68;;;3.03;;
81242;SDS011;70716;50.074;14.496;2023-07-20T05:18:13;6.00;;;3.20;;
81242;SDS011;70716;50.074;14.496;2023-07-20T05:20:38;4.82;;;2.80;;
81242;SDS011;70716;50.074;14.496;2023-07-20T05:23:04;6.10;;;3.10;;
81242;SDS011;70716;50.074;14.496;2023-07-20T05:25:30;5.80;;;3.00;;
81242;SDS011;70716;50.074;14.496;2023-07-20T05:27:56;7.55;;;3.10;;
81242;SDS011;70716;50.074;14.496;2023-07-20T05:30:21;6.43;;;2.78;;
81242;SDS011;70716;50.074;14.496;2023-07-20T05:32:47;7.97;;;3.83;;
81242;SDS011;70716;50.074;14.496;2023-07-20T05:35:16;6.15;;;3.33;;
81242;SDS011;70716;50.074;14.496;2023-07-20T05:40:11;6.35;;;3.20;;
81242;SDS011;70716;50.074;14.496;2023-07-20T05:42:38;7.10;;;3.40;;
81242;SDS011;70716;50.074;14.496;2023-07-20T05:45:05;6.43;;;3.17;;
81242;SDS011;70716;50.074;14.496;2023-07-20T05:47:31;7.35;;;3.35;;
81242;SDS011;70716;50.074;14.496;2023-07-20T05:49:58;6.30;;;3.47;;
81242;SDS011;70716;50.074;14.496;2023-07-20T05:52:25;7.05;;;3.20;;
81242;SDS011;70716;50.074;14.496;2023-07-20T05:54:50;7.63;;;3.33;;
81242;SDS011;70716;50.074;14.496;2023-07-20T05:57:16;7.55;;;3.60;;
81242;SDS011;70716;50.074;14.496;2023-07-20T05:59:41;6.88;;;3.42;;
81242;SDS011;70716;50.074;14.496;2023-07-20T06:02:10;6.30;;;3.15;;
81242;SDS011;70716;50.074;14.496;2023-07-20T06:04:36;7.57;;;3.40;;
81242;SDS011;70716;50.074;14.496;2023-07-20T06:07:01;5.55;;;2.63;;
81242;SDS011;70716;50.074;14.496;2023-07-20T06:09:27;5.30;;;2.85;;
81242;SDS011;70716;50.074;14.496;2023-07-20T06:11:53;7.50;;;3.20;;
81242;SDS011;70716;50.074;14.496;2023-07-20T06:14:22;7.28;;;3.15;;
81242;SDS011;70716;50.074;14.496;2023-07-20T06:16:47;5.72;;;3.17;;
81242;SDS011;70716;50.074;14.496;2023-07-20T06:19:13;6.45;;;2.92;;
81242;SDS011;70716;50.074;14.496;2023-07-20T06:21:38;5.20;;;2.80;;
81242;SDS011;70716;50.074;14.496;2023-07-20T06:24:05;7.35;;;3.17;;
81242;SDS011;70716;50.074;14.496;2023-07-20T06:26:31;5.72;;;2.70;;
81242;SDS011;70716;50.074;14.496;2023-07-20T06:29:03;5.65;;;2.63;;
81242;SDS011;70716;50.074;14.496;2023-07-20T06:31:32;5.80;;;2.72;;
81242;SDS011;70716;50.074;14.496;2023-07-20T06:34:04;6.95;;;2.70;;
81242;SDS011;70716;50.074;14.496;2023-07-20T06:36:29;6.18;;;3.35;;
81242;SDS011;70716;50.074;14.496;2023-07-20T06:38:58;5.90;;;2.92;;
81242;SDS011;70716;50.074;14.496;2023-07-20T06:41:23;5.43;;;2.92;;
81242;SDS011;70716;50.074;14.496;2023-07-20T06:43:51;5.80;;;2.65;;
81242;SDS011;70716;50.074;14.496;2023-07-20T06:46:24;8.55;;;3.15;;
81242;SDS011;70716;50.074;14.496;2023-07-20T06:48:51;5.05;;;2.42;;
81242;SDS011;70716;50.074;14.496;2023-07-20T06:51:16;6.13;;;2.70;;
81242;SDS011;70716;50.074;14.496;2023-07-20T06:53:45;6.82;;;2.63;;
81242;SDS011;70716;50.074;14.496;2023-07-20T06:56:11;5.65;;;2.60;;
81242;SDS011;70716;50.074;14.496;2023-07-20T06:58:36;5.70;;;2.42;;
81242;SDS011;70716;50.074;14.496;2023-07-20T07:01:05;6.32;;;2.67;;
81242;SDS011;70716;50.074;14.496;2023-07-20T07:03:35;4.75;;;2.47;;
81242;SDS011;70716;50.074;14.496;2023-07-20T07:06:04;5.00;;;2.53;;
81242;SDS011;70716;50.074;14.496;2023-07-20T07:08:30;6.10;;;2.47;;
81242;SDS011;70716;50.074;14.496;2023-07-20T07:10:55;6.85;;;2.67;;
81242;SDS011;70716;50.074;14.496;2023-07-20T07:13:21;6.43;;;2.50;;
81242;SDS011;70716;50.074;14.496;2023-07-20T07:15:46;5.18;;;2.40;;
81242;SDS011;70716;50.074;14.496;2023-07-20T07:18:12;6.50;;;2.72;;
81242;SDS011;70716;50.074;14.496;2023-07-20T07:20:37;7.80;;;2.58;;
81242;SDS011;70716;50.074;14.496;2023-07-20T07:23:02;5.00;;;1.98;;
81242;SDS011;70716;50.074;14.496;2023-07-20T07:25:28;4.53;;;1.83;;
81242;SDS011;70716;50.074;14.496;2023-07-20T07:27:53;4.28;;;2.10;;
81242;SDS011;70716;50.074;14.496;2023-07-20T07:30:20;4.43;;;1.90;;
81242;SDS011;70716;50.074;14.496;2023-07-20T07:32:46;4.75;;;2.08;;
81242;SDS011;70716;50.074;14.496;2023-07-20T07:35:11;5.85;;;2.20;;
81242;SDS011;70716;50.074;14.496;2023-07-20T07:37:37;5.78;;;1.92;;
81242;SDS011;70716;50.074;14.496;2023-07-20T07:40:03;5.90;;;2.30;;
81242;SDS011;70716;50.074;14.496;2023-07-20T07:42:31;4.63;;;2.10;;
81242;SDS011;70716;50.074;14.496;2023-07-20T07:44:56;6.60;;;2.10;;
81242;SDS011;70716;50.074;14.496;2023-07-20T07:47:22;5.55;;;2.20;;
81242;SDS011;70716;50.074;14.496;2023-07-20T07:49:50;4.85;;;2.13;;
81242;SDS011;70716;50.074;14.496;2023-07-20T07:52:16;3.60;;;1.80;;
81242;SDS011;70716;50.074;14.496;2023-07-20T07:54:41;6.30;;;2.10;;
81242;SDS011;70716;50.074;14.496;2023-07-20T07:57:06;5.85;;;1.90;;
81242;SDS011;70716;50.074;14.496;2023-07-20T07:59:32;4.60;;;2.00;;
81242;SDS011;70716;50.074;14.496;2023-07-20T08:02:01;5.68;;;1.92;;
81242;SDS011;70716;50.074;14.496;2023-07-20T08:06:53;5.57;;;1.80;;
81242;SDS011;70716;50.074;14.496;2023-07-20T08:09:18;4.55;;;2.03;;
81242;SDS011;70716;50.074;14.496;2023-07-20T08:11:44;5.00;;;2.17;;
81242;SDS011;70716;50.074;14.496;2023-07-20T08:14:09;5.25;;;1.90;;
81242;SDS011;70716;50.074;14.496;2023-07-20T08:16:34;4.05;;;1.80;;
81242;SDS011;70716;50.074;14.496;2023-07-20T08:19:00;4.50;;;2.00;;
81242;SDS011;70716;50.074;14.496;2023-07-20T08:21:25;5.05;;;2.00;;
81242;SDS011;70716;50.074;14.496;2023-07-20T08:23:51;3.53;;;1.75;;
81242;SDS011;70716;50.074;14.496;2023-07-20T08:26:16;3.88;;;2.05;;
81242;SDS011;70716;50.074;14.496;2023-07-20T08:28:50;5.38;;;2.17;;
81242;SDS011;70716;50.074;14.496;2023-07-20T08:31:15;4.57;;;1.98;;
81242;SDS011;70716;50.074;14.496;2023-07-20T08:33:41;3.70;;;1.80;;
81242;SDS011;70716;50.074;14.496;2023-07-20T08:36:07;4.18;;;1.95;;
81242;SDS011;70716;50.074;14.496;2023-07-20T08:38:36;4.90;;;1.92;;
81242;SDS011;70716;50.074;14.496;2023-07-20T08:41:01;4.35;;;1.52;;
81242;SDS011;70716;50.074;14.496;2023-07-20T08:43:27;4.60;;;1.75;;
81242;SDS011;70716;50.074;14.496;2023-07-20T08:45:56;3.83;;;1.60;;
81242;SDS011;70716;50.074;14.496;2023-07-20T08:48:22;5.70;;;1.77;;
81242;SDS011;70716;50.074;14.496;2023-07-20T08:50:49;4.05;;;1.77;;
81242;SDS011;70716;50.074;14.496;2023-07-20T08:53:17;4.65;;;1.90;;
81242;SDS011;70716;50.074;14.496;2023-07-20T08:55:44;6.07;;;1.98;;
81242;SDS011;70716;50.074;14.496;2023-07-20T08:58:11;4.38;;;1.80;;
81242;SDS011;70716;50.074;14.496;2023-07-20T09:00:42;5.38;;;1.98;;
81242;SDS011;70716;50.074;14.496;2023-07-20T09:03:10;4.43;;;1.92;;
81242;SDS011;70716;50.074;14.496;2023-07-20T09:05:36;6.82;;;2.33;;
81242;SDS011;70716;50.074;14.496;2023-07-20T09:08:07;6.95;;;1.92;;
81242;SDS011;70716;50.074;14.496;2023-07-20T09:10:32;4.45;;;2.00;;
81242;SDS011;70716;50.074;14.496;2023-07-20T09:12:58;4.70;;;1.70;;
81242;SDS011;70716;50.074;14.496;2023-07-20T09:15:23;3.92;;;1.85;;
81242;SDS011;70716;50.074;14.496;2023-07-20T09:17:50;4.90;;;1.75;;
81242;SDS011;70716;50.074;14.496;2023-07-20T09:20:17;5.03;;;1.95;;
81242;SDS011;70716;50.074;14.496;2023-07-20T09:22:43;3.72;;;1.75;;
81242;SDS011;70716;50.074;14.496;2023-07-20T09:25:12;4.40;;;1.83;;
81242;SDS011;70716;50.074;14.496;2023-07-20T09:27:42;6.13;;;2.10;;
81242;SDS011;70716;50.074;14.496;2023-07-20T09:30:12;4.25;;;1.98;;
81242;SDS011;70716;50.074;14.496;2023-07-20T09:32:42;3.92;;;1.60;;
81242;SDS011;70716;50.074;14.496;2023-07-20T09:35:20;4.80;;;2.00;;
81242;SDS011;70716;50.074;14.496;2023-07-20T09:38:00;4.63;;;1.73;;
81242;SDS011;70716;50.074;14.496;2023-07-20T09:40:26;4.00;;;1.90;;
81242;SDS011;70716;50.074;14.496;2023-07-20T09:42:53;3.67;;;1.90;;
81242;SDS011;70716;50.074;14.496;2023-07-20T09:45:28;4.63;;;1.83;;
81242;SDS011;70716;50.074;14.496;2023-07-20T09:48:03;5.50;;;2.08;;
81242;SDS011;70716;50.074;14.496;2023-07-20T09:50:30;4.05;;;1.85;;
81242;SDS011;70716;50.074;14.496;2023-07-20T09:52:55;3.95;;;1.63;;
81242;SDS011;70716;50.074;14.496;2023-07-20T09:55:22;4.15;;;1.92;;
81242;SDS011;70716;50.074;14.496;2023-07-20T09:57:49;3.70;;;1.70;;
81242;SDS011;70716;50.074;14.496;2023-07-20T10:00:16;4.35;;;2.08;;
81242;SDS011;70716;50.074;14.496;2023-07-20T10:02:44;5.07;;;2.00;;
81242;SDS011;70716;50.074;14.496;2023-07-20T10:05:11;5.80;;;1.95;;
81242;SDS011;70716;50.074;14.496;2023-07-20T10:07:48;4.13;;;1.88;;
81242;SDS011;70716;50.074;14.496;2023-07-20T10:10:18;4.80;;;1.92;;
81242;SDS011;70716;50.074;14.496;2023-07-20T10:12:44;6.47;;;2.08;;
81242;SDS011;70716;50.074;14.496;2023-07-20T10:18:09;4.63;;;2.00;;
81242;SDS011;70716;50.074;14.496;2023-07-20T10:20:40;5.35;;;1.80;;
81242;SDS011;70716;50.074;14.496;2023-07-20T10:23:09;4.57;;;2.00;;
81242;SDS011;70716;50.074;14.496;2023-07-20T10:25:36;4.63;;;2.08;;
81242;SDS011;70716;50.074;14.496;2023-07-20T10:28:04;4.90;;;1.90;;
81242;SDS011;70716;50.074;14.496;2023-07-20T10:30:31;4.03;;;1.83;;
81242;SDS011;70716;50.074;14.496;2023-07-20T10:32:59;4.95;;;2.00;;
81242;SDS011;70716;50.074;14.496;2023-07-20T10:35:27;4.55;;;1.92;;
81242;SDS011;70716;50.074;14.496;2023-07-20T10:38:00;3.75;;;1.80;;
81242;SDS011;70716;50.074;14.496;2023-07-20T10:40:27;3.70;;;1.70;;
81242;SDS011;70716;50.074;14.496;2023-07-20T10:43:03;4.80;;;2.00;;
81242;SDS011;70716;50.074;14.496;2023-07-20T10:45:39;3.47;;;1.77;;
81242;SDS011;70716;50.074;14.496;2023-07-20T10:48:18;4.78;;;1.73;;
81242;SDS011;70716;50.074;14.496;2023-07-20T10:51:08;4.63;;;1.60;;
81242;SDS011;70716;50.074;14.496;2023-07-20T10:53:42;3.80;;;1.80;;
81242;SDS011;70716;50.074;14.496;2023-07-20T10:56:14;3.95;;;1.80;;
81242;SDS011;70716;50.074;14.496;2023-07-20T10:58:45;3.30;;;1.67;;
81242;SDS011;70716;50.074;14.496;2023-07-20T11:01:18;5.38;;;2.08;;
81242;SDS011;70716;50.074;14.496;2023-07-20T11:03:48;5.32;;;1.98;;
81242;SDS011;70716;50.074;14.496;2023-07-20T11:08:56;3.45;;;1.60;;
81242;SDS011;70716;50.074;14.496;2023-07-20T11:11:46;4.85;;;2.10;;
81242;SDS011;70716;50.074;14.496;2023-07-20T11:14:23;4.65;;;1.85;;
81242;SDS011;70716;50.074;14.496;2023-07-20T11:16:52;5.68;;;2.10;;
81242;SDS011;70716;50.074;14.496;2023-07-20T11:19:22;4.18;;;2.00;;
81242;SDS011;70716;50.074;14.496;2023-07-20T11:21:53;4.72;;;1.70;;
81242;SDS011;70716;50.074;14.496;2023-07-20T11:24:22;5.35;;;2.08;;
81242;SDS011;70716;50.074;14.496;2023-07-20T11:29:18;3.95;;;1.80;;
81242;SDS011;70716;50.074;14.496;2023-07-20T11:31:48;3.75;;;1.67;;
81242;SDS011;70716;50.074;14.496;2023-07-20T11:34:20;4.65;;;1.90;;
81242;SDS011;70716;50.074;14.496;2023-07-20T11:36:47;3.95;;;1.88;;
81242;SDS011;70716;50.074;14.496;2023-07-20T11:39:18;4.05;;;1.80;;
81242;SDS011;70716;50.074;14.496;2023-07-20T11:41:48;3.97;;;1.90;;
81242;SDS011;70716;50.074;14.496;2023-07-20T11:44:18;3.28;;;1.77;;
81242;SDS011;70716;50.074;14.496;2023-07-20T11:46:46;2.97;;;1.70;;
81242;SDS011;70716;50.074;14.496;2023-07-20T11:49:14;4.43;;;1.90;;
81242;SDS011;70716;50.074;14.496;2023-07-20T11:51:40;4.93;;;1.73;;
81242;SDS011;70716;50.074;14.496;2023-07-20T11:54:07;7.35;;;2.20;;
81242;SDS011;70716;50.074;14.496;2023-07-20T11:56:33;4.25;;;1.88;;
81242;SDS011;70716;50.074;14.496;2023-07-20T11:58:58;4.30;;;1.85;;
81242;SDS011;70716;50.074;14.496;2023-07-20T12:01:25;4.57;;;1.80;;
81242;SDS011;70716;50.074;14.496;2023-07-20T12:03:54;3.78;;;1.80;;
81242;SDS011;70716;50.074;14.496;2023-07-20T12:06:25;5.07;;;2.05;;
81242;SDS011;70716;50.074;14.496;2023-07-20T12:08:54;4.45;;;2.00;;
81242;SDS011;70716;50.074;14.496;2023-07-20T12:11:31;4.07;;;1.65;;
81242;SDS011;70716;50.074;14.496;2023-07-20T12:14:04;4.35;;;1.83;;
81242;SDS011;70716;50.074;14.496;2023-07-20T12:16:32;4.28;;;1.88;;
81242;SDS011;70716;50.074;14.496;2023-07-20T12:21:27;5.20;;;1.77;;
81242;SDS011;70716;50.074;14.496;2023-07-20T12:23:53;4.38;;;1.92;;
81242;SDS011;70716;50.074;14.496;2023-07-20T12:26:23;4.68;;;1.80;;
81242;SDS011;70716;50.074;14.496;2023-07-20T12:28:50;6.70;;;2.00;;
81242;SDS011;70716;50.074;14.496;2023-07-20T12:31:18;5.20;;;2.03;;
81242;SDS011;70716;50.074;14.496;2023-07-20T12:33:43;3.65;;;1.90;;
81242;SDS011;70716;50.074;14.496;2023-07-20T12:36:09;3.90;;;1.73;;
81242;SDS011;70716;50.074;14.496;2023-07-20T12:38:36;4.88;;;2.30;;
81242;SDS011;70716;50.074;14.496;2023-07-20T12:41:03;4.90;;;1.80;;
81242;SDS011;70716;50.074;14.496;2023-07-20T12:43:29;4.95;;;1.88;;
81242;SDS011;70716;50.074;14.496;2023-07-20T12:45:55;4.78;;;2.00;;
81242;SDS011;70716;50.074;14.496;2023-07-20T12:48:24;4.85;;;1.80;;
81242;SDS011;70716;50.074;14.496;2023-07-20T12:50:49;4.40;;;1.80;;
81242;SDS011;70716;50.074;14.496;2023-07-20T12:53:15;3.65;;;1.83;;
81242;SDS011;70716;50.074;14.496;2023-07-20T12:55:40;5.00;;;1.80;;
81242;SDS011;70716;50.074;14.496;2023-07-20T12:58:07;4.05;;;1.58;;
81242;SDS011;70716;50.074;14.496;2023-07-20T13:00:32;5.40;;;1.85;;
81242;SDS011;70716;50.074;14.496;2023-07-20T13:03:01;3.42;;;1.73;;
81242;SDS011;70716;50.074;14.496;2023-07-20T13:05:32;5.97;;;1.80;;
81242;SDS011;70716;50.074;14.496;2023-07-20T13:07:58;3.25;;;1.73;;
81242;SDS011;70716;50.074;14.496;2023-07-20T13:10:27;5.90;;;1.75;;
81242;SDS011;70716;50.074;14.496;2023-07-20T13:12:52;4.97;;;2.05;;
81242;SDS011;70716;50.074;14.496;2023-07-20T13:15:18;5.80;;;1.90;;
81242;SDS011;70716;50.074;14.496;2023-07-20T13:17:43;5.13;;;1.98;;
81242;SDS011;70716;50.074;14.496;2023-07-20T13:20:09;3.40;;;1.67;;
81242;SDS011;70716;50.074;14.496;2023-07-20T13:22:39;4.68;;;2.10;;
81242;SDS011;70716;50.074;14.496;2023-07-20T13:25:08;4.57;;;1.92;;
81242;SDS011;70716;50.074;14.496;2023-07-20T13:27:34;4.25;;;1.75;;
81242;SDS011;70716;50.074;14.496;2023-07-20T13:30:01;3.15;;;1.60;;
81242;SDS011;70716;50.074;14.496;2023-07-20T13:32:31;4.57;;;1.85;;
81242;SDS011;70716;50.074;14.496;2023-07-20T13:34:57;4.18;;;1.83;;
81242;SDS011;70716;50.074;14.496;2023-07-20T13:37:22;3.88;;;1.83;;
81242;SDS011;70716;50.074;14.496;2023-07-20T13:39:51;4.35;;;1.80;;
81242;SDS011;70716;50.074;14.496;2023-07-20T13:42:16;4.72;;;2.00;;
81242;SDS011;70716;50.074;14.496;2023-07-20T13:44:42;4.90;;;1.70;;
81242;SDS011;70716;50.074;14.496;2023-07-20T13:47:11;3.90;;;1.85;;
81242;SDS011;70716;50.074;14.496;2023-07-20T13:49:37;4.35;;;1.73;;
81242;SDS011;70716;50.074;14.496;2023-07-20T13:52:05;3.65;;;1.73;;
81242;SDS011;70716;50.074;14.496;2023-07-20T13:54:31;3.35;;;1.73;;
81242;SDS011;70716;50.074;14.496;2023-07-20T13:56:57;5.07;;;1.85;;
81242;SDS011;70716;50.074;14.496;2023-07-20T13:59:22;4.68;;;1.52;;
81242;SDS011;70716;50.074;14.496;2023-07-20T14:01:48;4.10;;;1.83;;
81242;SDS011;70716;50.074;14.496;2023-07-20T14:04:15;3.83;;;1.75;;
81242;SDS011;70716;50.074;14.496;2023-07-20T14:06:41;4.38;;;2.00;;
81242;SDS011;70716;50.074;14.496;2023-07-20T14:09:09;4.82;;;1.80;;
81242;SDS011;70716;50.074;14.496;2023-07-20T14:11:35;3.65;;;1.83;;
81242;SDS011;70716;50.074;14.496;2023-07-20T14:14:00;5.28;;;1.70;;
81242;SDS011;70716;50.074;14.496;2023-07-20T14:16:25;2.80;;;1.58;;
81242;SDS011;70716;50.074;14.496;2023-07-20T14:18:51;3.13;;;1.60;;
81242;SDS011;70716;50.074;14.496;2023-07-20T14:21:17;3.67;;;1.50;;
81242;SDS011;70716;50.074;14.496;2023-07-20T14:23:47;3.72;;;1.70;;
81242;SDS011;70716;50.074;14.496;2023-07-20T14:26:18;2.55;;;1.38;;
81242;SDS011;70716;50.074;14.496;2023-07-20T14:28:43;3.80;;;1.40;;
81242;SDS011;70716;50.074;14.496;2023-07-20T14:31:08;3.78;;;1.42;;
81242;SDS011;70716;50.074;14.496;2023-07-20T14:33:34;3.70;;;1.70;;
81242;SDS011;70716;50.074;14.496;2023-07-20T14:36:00;4.90;;;1.55;;
81242;SDS011;70716;50.074;14.496;2023-07-20T14:38:27;3.95;;;1.40;;
81242;SDS011;70716;50.074;14.496;2023-07-20T14:43:18;3.90;;;1.77;;
81242;SDS011;70716;50.074;14.496;2023-07-20T14:45:44;3.67;;;1.50;;
81242;SDS011;70716;50.074;14.496;2023-07-20T14:48:10;4.50;;;1.52;;
81242;SDS011;70716;50.074;14.496;2023-07-20T14:50:36;5.18;;;1.90;;
81242;SDS011;70716;50.074;14.496;2023-07-20T14:53:01;4.82;;;1.80;;
81242;SDS011;70716;50.074;14.496;2023-07-20T14:55:29;3.17;;;1.63;;
81242;SDS011;70716;50.074;14.496;2023-07-20T14:57:55;3.55;;;1.52;;
81242;SDS011;70716;50.074;14.496;2023-07-20T15:00:20;2.70;;;1.60;;
81242;SDS011;70716;50.074;14.496;2023-07-20T15:02:47;6.45;;;2.47;;